createdAt,value
2022-07-29T00:00:26.314Z,47.08
2022-07-29T00:02:54.174Z,47.40
2022-07-29T00:05:22.783Z,47.41
2022-07-29T00:07:50.497Z,47.60
2022-07-29T00:10:18.355Z,47.70
2022-07-29T00:12:46.016Z,47.55
2022-07-29T00:15:15.730Z,47.28
2022-07-29T00:17:43.297Z,47.22
2022-07-29T00:20:11.654Z,47.33
2022-07-29T00:22:41.054Z,47.31
2022-07-29T00:25:11.018Z,47.42
2022-07-29T00:27:41.457Z,47.62
2022-07-29T00:30:09.799Z,47.55
2022-07-29T00:32:37.366Z,47.46
2022-07-29T00:35:26.054Z,47.42
2022-07-29T00:37:53.854Z,47.55
2022-07-29T00:40:23.484Z,47.52
2022-07-29T00:42:53.242Z,47.69
2022-07-29T00:45:22.900Z,47.81
2022-07-29T00:47:51.192Z,47.77
2022-07-29T00:50:18.955Z,47.90
2022-07-29T00:52:46.645Z,48.04
2022-07-29T00:55:16.893Z,48.03
2022-07-29T00:57:45.963Z,48.23
2022-07-29T01:00:20.412Z,48.32
2022-07-29T01:02:49.454Z,48.53
2022-07-29T01:05:19.944Z,48.48
2022-07-29T01:07:49.518Z,48.55
2022-07-29T01:10:18.187Z,48.42
2022-07-29T01:12:48.413Z,48.54
2022-07-29T01:15:16.437Z,48.64
2022-07-29T01:18:09.201Z,48.71
2022-07-29T01:20:55.602Z,49.00
2022-07-29T01:23:40.939Z,48.99
2022-07-29T01:26:32.681Z,49.04
2022-07-29T01:29:15.783Z,48.85
2022-07-29T01:32:01.126Z,49.11
2022-07-29T01:34:42.429Z,49.05
2022-07-29T01:37:17.783Z,49.04
2022-07-29T01:39:48.885Z,49.09
2022-07-29T01:42:50.499Z,49.09
2022-07-29T01:45:20.719Z,48.88
2022-07-29T01:48:28.961Z,49.01
2022-07-29T01:51:09.626Z,48.96
2022-07-29T01:53:46.285Z,49.17
2022-07-29T01:56:20.827Z,49.14
2022-07-29T01:58:51.815Z,49.38
2022-07-29T02:01:23.512Z,49.41
2022-07-29T02:03:52.586Z,49.82
2022-07-29T02:06:24.671Z,49.92
2022-07-29T02:08:57.778Z,50.31
2022-07-29T02:11:25.630Z,50.47
2022-07-29T02:13:55.709Z,50.51
2022-07-29T02:16:24.792Z,50.71
2022-07-29T02:18:56.120Z,50.90
2022-07-29T02:21:29.370Z,50.80
2022-07-29T02:24:01.547Z,50.82
2022-07-29T02:26:31.199Z,50.87
2022-07-29T02:29:01.091Z,51.13
2022-07-29T02:31:34.558Z,51.07
2022-07-29T02:34:05.498Z,51.35
2022-07-29T02:36:34.732Z,51.59
2022-07-29T02:39:03.691Z,51.43
2022-07-29T02:41:45.659Z,51.52
2022-07-29T02:44:17.377Z,51.59
2022-07-29T02:47:01.372Z,51.67
2022-07-29T02:49:50.134Z,51.98
2022-07-29T02:52:28.139Z,52.10
2022-07-29T02:55:27.962Z,52.07
2022-07-29T02:58:23.638Z,52.40
2022-07-29T03:00:53.558Z,52.40
2022-07-29T03:03:22.844Z,52.15
2022-07-29T03:05:50.482Z,52.29
2022-07-29T03:08:18.627Z,52.70
2022-07-29T03:10:48.318Z,52.61
2022-07-29T03:13:16.720Z,52.50
2022-07-29T03:15:46.193Z,52.44
2022-07-29T03:18:14.549Z,52.37
2022-07-29T03:20:42.400Z,52.48
2022-07-29T03:23:10.323Z,52.66
2022-07-29T03:25:37.932Z,52.50
2022-07-29T03:28:05.702Z,52.65
2022-07-29T03:30:35.635Z,52.60
2022-07-29T03:33:03.172Z,52.55
2022-07-29T03:35:41.226Z,52.66
2022-07-29T03:38:09.086Z,52.57
2022-07-29T03:40:57.059Z,52.74
2022-07-29T03:43:32.815Z,52.82
2022-07-29T03:46:02.729Z,52.81
2022-07-29T03:48:34.980Z,52.83
2022-07-29T03:51:02.614Z,52.84
2022-07-29T03:53:30.796Z,52.84
2022-07-29T03:56:04.278Z,52.87
2022-07-29T03:58:33.459Z,52.78
2022-07-29T04:01:03.853Z,52.45
2022-07-29T04:03:31.858Z,52.57
2022-07-29T04:06:01.572Z,52.50
2022-07-29T04:08:31.546Z,52.56
2022-07-29T04:11:01.642Z,52.57
2022-07-29T04:13:29.357Z,52.53
2022-07-29T04:15:57.164Z,52.26
2022-07-29T04:18:24.907Z,52.26
2022-07-29T04:20:52.656Z,52.35
2022-07-29T04:23:20.240Z,52.23
2022-07-29T04:25:48.108Z,52.22
2022-07-29T04:28:15.858Z,52.26
2022-07-29T04:30:44.837Z,52.23
2022-07-29T04:33:12.999Z,52.28
2022-07-29T04:35:49.842Z,52.04
2022-07-29T04:38:21.178Z,52.04
2022-07-29T04:40:49.815Z,51.77
2022-07-29T04:43:22.397Z,51.73
2022-07-29T04:45:50.573Z,51.68
2022-07-29T04:48:18.268Z,51.68
2022-07-29T04:50:48.292Z,51.40
2022-07-29T04:53:15.894Z,51.30
2022-07-29T04:55:43.480Z,51.31
2022-07-29T04:58:11.059Z,50.98
2022-07-29T05:00:39.137Z,50.59
2022-07-29T05:03:07.850Z,49.98
2022-07-29T05:05:35.711Z,49.41
2022-07-29T05:08:03.353Z,48.98
2022-07-29T05:10:31.052Z,48.42
2022-07-29T05:12:58.579Z,48.02
2022-07-29T05:15:26.205Z,47.88
2022-07-29T05:17:53.788Z,47.79
2022-07-29T05:20:27.365Z,47.25
2022-07-29T05:22:54.963Z,46.12
2022-07-29T05:25:23.336Z,45.35
2022-07-29T05:27:51.575Z,44.63
2022-07-29T05:30:21.058Z,44.05
2022-07-29T05:32:48.677Z,43.34
2022-07-29T05:35:18.279Z,42.39
2022-07-29T05:37:45.928Z,41.25
2022-07-29T05:40:13.607Z,40.42
2022-07-29T05:42:41.196Z,39.56
2022-07-29T05:45:12.320Z,38.56
2022-07-29T05:47:42.230Z,38.16
2022-07-29T05:50:10.602Z,37.40
2022-07-29T05:52:38.162Z,36.91
2022-07-29T05:55:06.677Z,36.81
2022-07-29T05:57:34.539Z,36.29
2022-07-29T06:00:02.129Z,35.58
2022-07-29T06:02:29.698Z,34.84
2022-07-29T06:05:00.355Z,34.87
2022-07-29T06:07:27.935Z,34.68
2022-07-29T06:09:55.607Z,34.97
2022-07-29T06:12:24.456Z,37.45
2022-07-29T06:14:54.198Z,38.58
2022-07-29T06:17:25.380Z,39.36
2022-07-29T06:19:53.079Z,40.62
2022-07-29T06:22:20.665Z,40.35
2022-07-29T06:24:48.263Z,40.73
2022-07-29T06:27:15.845Z,40.70
2022-07-29T06:29:43.419Z,40.70
2022-07-29T06:32:11.008Z,40.64
2022-07-29T06:34:38.592Z,40.86
2022-07-29T06:37:15.625Z,40.89
2022-07-29T06:39:43.474Z,40.86
2022-07-29T06:42:11.322Z,40.87
2022-07-29T06:44:38.858Z,41.26
2022-07-29T06:47:06.516Z,40.33
2022-07-29T06:49:34.137Z,39.99
2022-07-29T06:52:04.871Z,39.35
2022-07-29T06:54:32.428Z,38.72
2022-07-29T06:57:00.139Z,38.56
2022-07-29T06:59:33.548Z,37.81
2022-07-29T07:02:03.382Z,38.39
2022-07-29T07:04:33.488Z,37.54
2022-07-29T07:07:01.575Z,36.59
2022-07-29T07:09:40.001Z,35.78
2022-07-29T07:12:10.834Z,36.51
2022-07-29T07:14:41.950Z,36.04
2022-07-29T07:17:11.718Z,36.61
2022-07-29T07:19:39.302Z,36.13
2022-07-29T07:22:06.936Z,36.39
2022-07-29T07:24:34.552Z,36.25
2022-07-29T07:27:02.857Z,35.41
2022-07-29T07:29:32.861Z,35.11
2022-07-29T07:32:01.073Z,35.75
2022-07-29T07:34:29.552Z,35.35
2022-07-29T07:36:57.406Z,34.82
2022-07-29T07:39:27.934Z,34.62
2022-07-29T07:41:55.632Z,33.88
2022-07-29T07:44:23.778Z,33.91
2022-07-29T07:46:51.544Z,33.85
2022-07-29T07:49:20.102Z,33.38
2022-07-29T07:51:50.540Z,33.51
2022-07-29T07:54:20.758Z,33.19
2022-07-29T07:56:50.893Z,33.24
2022-07-29T07:59:21.143Z,32.47
2022-07-29T08:01:55.622Z,32.12
2022-07-29T08:04:28.631Z,32.42
2022-07-29T08:06:58.118Z,31.52
2022-07-29T08:09:29.858Z,31.23
2022-07-29T08:11:59.218Z,30.44
2022-07-29T08:14:29.321Z,29.16
2022-07-29T08:16:56.924Z,29.60
2022-07-29T08:19:24.742Z,29.55
2022-07-29T08:21:55.526Z,29.04
2022-07-29T08:24:41.657Z,28.25
2022-07-29T08:27:33.357Z,29.43
2022-07-29T08:29:59.119Z,29.34
2022-07-29T08:32:52.146Z,28.65
2022-07-29T08:35:17.284Z,27.69
2022-07-29T08:37:44.958Z,26.91
2022-07-29T08:40:13.207Z,26.96
2022-07-29T08:42:40.767Z,26.76
2022-07-29T08:45:09.533Z,25.92
2022-07-29T08:47:40.888Z,26.73
2022-07-29T08:50:10.487Z,25.61
2022-07-29T08:52:40.647Z,24.44
2022-07-29T08:55:10.611Z,24.47
2022-07-29T08:57:43.396Z,24.72
2022-07-29T09:00:20.170Z,23.43
2022-07-29T09:02:53.205Z,23.11
2022-07-29T09:05:24.797Z,22.64
2022-07-29T09:07:53.520Z,23.26
2022-07-29T09:10:23.390Z,22.78
2022-07-29T09:12:50.941Z,23.03
2022-07-29T09:15:19.590Z,22.84
2022-07-29T09:17:51.845Z,23.20
2022-07-29T09:20:22.559Z,23.52
2022-07-29T09:22:51.837Z,22.23
2022-07-29T09:25:37.734Z,22.58
2022-07-29T09:28:17.409Z,22.56
2022-07-29T09:30:56.494Z,22.27
2022-07-29T09:33:35.417Z,21.89
2022-07-29T09:36:08.765Z,22.38
2022-07-29T09:38:37.672Z,23.82
2022-07-29T09:41:07.619Z,23.48
2022-07-29T09:43:35.940Z,23.02
2022-07-29T09:46:13.979Z,22.92
2022-07-29T09:48:41.680Z,21.79
2022-07-29T09:51:24.187Z,22.45
2022-07-29T09:53:55.212Z,21.47
2022-07-29T09:56:45.234Z,21.61
2022-07-29T09:59:13.216Z,21.93
2022-07-29T10:01:40.828Z,22.83
2022-07-29T10:04:10.090Z,22.18
2022-07-29T10:07:03.969Z,20.72
2022-07-29T10:09:32.955Z,20.57
2022-07-29T10:12:15.518Z,20.70
2022-07-29T10:14:44.561Z,20.47
2022-07-29T10:17:13.706Z,20.54
2022-07-29T10:19:42.908Z,20.33
2022-07-29T10:22:13.161Z,19.21
2022-07-29T10:24:41.039Z,19.30
2022-07-29T10:27:12.462Z,18.98
2022-07-29T10:29:40.066Z,18.25
2022-07-29T10:32:22.879Z,18.45
2022-07-29T10:35:29.300Z,18.33
2022-07-29T10:38:32.549Z,19.09
2022-07-29T10:41:36.397Z,20.63
2022-07-29T10:44:19.174Z,19.47
2022-07-29T10:46:47.841Z,18.06
2022-07-29T10:49:17.107Z,17.87
2022-07-29T10:52:06.160Z,17.12
2022-07-29T10:54:43.854Z,19.21
2022-07-29T10:57:15.034Z,19.58
2022-07-29T10:59:48.273Z,19.57
2022-07-29T11:02:54.755Z,18.81
2022-07-29T11:05:32.188Z,18.64
2022-07-29T11:08:20.447Z,18.85
2022-07-29T11:10:50.249Z,18.98
2022-07-29T11:13:47.222Z,19.99
2022-07-29T11:16:17.566Z,21.75
2022-07-29T11:19:14.076Z,22.39
2022-07-29T11:21:53.521Z,22.24
2022-07-29T11:24:34.780Z,20.58
2022-07-29T11:27:18.199Z,20.03
2022-07-29T11:29:58.890Z,21.54
2022-07-29T11:32:39.846Z,21.00
2022-07-29T11:35:19.024Z,20.88
2022-07-29T11:37:52.678Z,20.46
2022-07-29T11:40:26.941Z,19.40
2022-07-29T11:42:55.199Z,18.50
2022-07-29T11:45:43.266Z,18.57
2022-07-29T11:48:29.197Z,19.23
2022-07-29T11:51:03.903Z,19.41
2022-07-29T11:53:36.215Z,19.37
2022-07-29T11:56:06.522Z,18.90
2022-07-29T11:58:34.434Z,19.83
2022-07-29T12:01:04.948Z,19.90
2022-07-29T12:04:06.844Z,20.18
2022-07-29T12:06:37.468Z,19.17
2022-07-29T12:09:14.761Z,19.45
2022-07-29T12:11:42.848Z,19.51
2022-07-29T12:14:27.399Z,18.74
2022-07-29T12:16:55.195Z,18.20
2022-07-29T12:19:23.592Z,19.05
2022-07-29T12:21:59.803Z,19.38
2022-07-29T12:24:46.866Z,19.48
2022-07-29T12:27:19.471Z,19.48
2022-07-29T12:30:02.876Z,19.90
2022-07-29T12:32:39.722Z,19.79
2022-07-29T12:35:12.338Z,20.01
2022-07-29T12:37:42.616Z,20.13
2022-07-29T12:40:13.641Z,20.24
2022-07-29T12:42:41.774Z,20.39
2022-07-29T12:45:09.887Z,20.14
2022-07-29T12:47:53.543Z,20.70
2022-07-29T12:50:26.138Z,21.31
2022-07-29T12:52:56.859Z,21.76
2022-07-29T12:55:44.380Z,22.65
2022-07-29T12:58:12.589Z,23.62
2022-07-29T13:00:41.018Z,23.15
2022-07-29T13:03:11.366Z,23.15
2022-07-29T13:05:49.458Z,23.38
2022-07-29T13:08:21.917Z,23.76
2022-07-29T13:10:50.529Z,23.67
2022-07-29T13:13:18.730Z,23.67
2022-07-29T13:15:48.852Z,23.86
2022-07-29T13:18:33.239Z,23.90
2022-07-29T13:21:16.533Z,23.86
2022-07-29T13:23:45.402Z,23.67
2022-07-29T13:26:13.748Z,23.51
2022-07-29T13:28:43.984Z,23.05
2022-07-29T13:31:12.192Z,23.25
2022-07-29T13:33:39.794Z,23.73
2022-07-29T13:36:08.015Z,23.90
2022-07-29T13:38:37.903Z,23.87
2022-07-29T13:41:05.644Z,23.66
2022-07-29T13:43:36.089Z,23.73
2022-07-29T13:46:03.768Z,23.80
2022-07-29T13:48:31.434Z,23.92
2022-07-29T13:50:59.076Z,24.17
2022-07-29T13:53:29.672Z,24.39
2022-07-29T13:55:57.329Z,24.97
2022-07-29T13:58:25.286Z,25.22
2022-07-29T14:00:52.930Z,24.58
2022-07-29T14:03:20.756Z,24.58
2022-07-29T14:05:48.306Z,24.55
2022-07-29T14:08:18.172Z,24.56
2022-07-29T14:10:45.705Z,24.70
2022-07-29T14:13:24.390Z,24.63
2022-07-29T14:15:53.086Z,24.55
2022-07-29T14:18:20.681Z,24.44
2022-07-29T14:20:48.238Z,24.39
2022-07-29T14:23:16.404Z,24.39
2022-07-29T14:25:44.558Z,24.32
2022-07-29T14:28:14.709Z,24.38
2022-07-29T14:30:42.741Z,24.38
2022-07-29T14:33:10.467Z,24.44
2022-07-29T14:35:38.158Z,24.70
2022-07-29T14:38:05.737Z,24.78
2022-07-29T14:40:33.503Z,24.83
2022-07-29T14:43:03.817Z,24.96
2022-07-29T14:45:32.494Z,24.92
2022-07-29T14:48:00.866Z,25.08
2022-07-29T14:50:31.758Z,25.17
2022-07-29T14:53:00.428Z,25.05
2022-07-29T14:55:28.441Z,25.18
2022-07-29T14:58:03.246Z,25.05
2022-07-29T15:00:38.685Z,25.03
2022-07-29T15:03:06.813Z,25.04
2022-07-29T15:05:39.259Z,24.95
2022-07-29T15:08:09.066Z,24.91
2022-07-29T15:10:37.007Z,24.94
2022-07-29T15:13:04.663Z,24.75
2022-07-29T15:15:32.865Z,24.63
2022-07-29T15:18:00.554Z,24.62
2022-07-29T15:20:28.295Z,24.64
2022-07-29T15:22:56.870Z,24.65
2022-07-29T15:25:26.344Z,24.65
2022-07-29T15:28:00.806Z,24.66
2022-07-29T15:30:32.722Z,24.75
2022-07-29T15:33:03.542Z,24.82
2022-07-29T15:35:31.323Z,24.88
2022-07-29T15:37:58.870Z,25.04
2022-07-29T15:40:26.698Z,25.11
2022-07-29T15:42:54.248Z,25.38
2022-07-29T15:45:21.959Z,25.55
2022-07-29T15:47:49.675Z,25.73
2022-07-29T15:50:17.486Z,25.81
2022-07-29T15:52:45.086Z,25.78
2022-07-29T15:55:12.650Z,25.77
2022-07-29T15:57:40.866Z,25.70
2022-07-29T16:00:10.348Z,25.64
2022-07-29T16:02:38.031Z,25.59
2022-07-29T16:05:09.302Z,25.69
2022-07-29T16:07:37.723Z,25.83
2022-07-29T16:10:07.836Z,25.90
2022-07-29T16:12:35.569Z,26.12
2022-07-29T16:15:08.949Z,26.20
2022-07-29T16:17:37.745Z,26.10
2022-07-29T16:20:06.829Z,26.08
2022-07-29T16:22:34.440Z,26.00
2022-07-29T16:25:04.334Z,25.96
2022-07-29T16:27:37.759Z,26.05
2022-07-29T16:30:08.685Z,26.09
2022-07-29T16:32:36.453Z,26.25
2022-07-29T16:35:05.352Z,26.20
2022-07-29T16:37:35.371Z,26.03
2022-07-29T16:40:03.566Z,26.46
2022-07-29T16:42:48.917Z,26.61
2022-07-29T16:45:21.405Z,26.56
2022-07-29T16:47:51.492Z,26.32
2022-07-29T16:50:20.214Z,26.34
2022-07-29T16:52:47.783Z,26.44
2022-07-29T16:55:15.387Z,26.54
2022-07-29T16:57:43.812Z,26.72
2022-07-29T17:00:11.966Z,27.14
2022-07-29T17:02:41.710Z,27.44
2022-07-29T17:05:10.627Z,27.52
2022-07-29T17:07:41.266Z,27.81
2022-07-29T17:10:10.315Z,27.93
2022-07-29T17:12:40.035Z,28.25
2022-07-29T17:15:10.143Z,28.53
2022-07-29T17:17:56.530Z,29.08
2022-07-29T17:20:26.654Z,29.34
2022-07-29T17:22:54.919Z,29.92
2022-07-29T17:25:24.127Z,30.26
2022-07-29T17:28:01.254Z,30.47
2022-07-29T17:30:29.570Z,30.95
2022-07-29T17:32:57.254Z,31.49
2022-07-29T17:35:42.312Z,32.02
2022-07-29T17:38:09.923Z,32.53
2022-07-29T17:40:38.118Z,33.01
2022-07-29T17:43:09.306Z,33.66
2022-07-29T17:45:50.266Z,34.31
2022-07-29T17:48:18.935Z,34.74
2022-07-29T17:50:47.517Z,35.22
2022-07-29T17:53:17.990Z,35.65
2022-07-29T17:55:48.582Z,36.17
2022-07-29T17:58:17.192Z,36.88
2022-07-29T18:01:05.113Z,37.11
2022-07-29T18:03:44.635Z,37.56
2022-07-29T18:06:12.421Z,38.44
2022-07-29T18:08:49.299Z,38.19
2022-07-29T18:11:16.915Z,38.53
2022-07-29T18:13:44.830Z,38.80
2022-07-29T18:16:15.190Z,39.23
2022-07-29T18:18:45.141Z,39.59
2022-07-29T18:21:15.108Z,39.80
2022-07-29T18:23:42.765Z,39.89
2022-07-29T18:26:12.055Z,40.11
2022-07-29T18:28:41.975Z,40.49
2022-07-29T18:31:10.104Z,40.58
2022-07-29T18:33:45.460Z,40.96
2022-07-29T18:36:13.057Z,41.02
2022-07-29T18:38:41.821Z,41.10
2022-07-29T18:41:09.906Z,41.13
2022-07-29T18:43:37.515Z,41.23
2022-07-29T18:46:06.664Z,41.36
2022-07-29T18:48:38.468Z,41.25
2022-07-29T18:51:09.474Z,41.25
2022-07-29T18:53:37.485Z,41.15
2022-07-29T18:56:05.373Z,41.16
2022-07-29T18:58:33.343Z,41.19
2022-07-29T19:01:01.950Z,40.95
2022-07-29T19:03:29.521Z,40.83
2022-07-29T19:05:57.132Z,40.60
2022-07-29T19:08:24.732Z,40.46
2022-07-29T19:10:55.684Z,39.91
2022-07-29T19:13:23.800Z,38.95
2022-07-29T19:15:53.996Z,38.24
2022-07-29T19:18:21.686Z,37.62
2022-07-29T19:20:54.269Z,37.22
2022-07-29T19:23:21.882Z,37.04
2022-07-29T19:25:53.651Z,37.06
2022-07-29T19:28:21.996Z,37.18
2022-07-29T19:30:50.203Z,37.24
2022-07-29T19:33:21.931Z,37.30
2022-07-29T19:35:54.579Z,37.47
2022-07-29T19:38:22.777Z,37.74
2022-07-29T19:40:50.458Z,37.94
2022-07-29T19:43:50.353Z,38.02
2022-07-29T19:46:10.222Z,38.36
2022-07-29T19:48:40.405Z,38.48
2022-07-29T19:51:10.462Z,38.62
2022-07-29T19:53:45.931Z,38.88
2022-07-29T19:56:16.602Z,39.10
2022-07-29T19:58:45.275Z,39.00
2022-07-29T20:01:20.223Z,39.29
2022-07-29T20:03:47.790Z,39.36
2022-07-29T20:06:15.457Z,39.73
2022-07-29T20:08:42.996Z,39.86
2022-07-29T20:11:10.566Z,39.83
2022-07-29T20:13:38.242Z,40.27
2022-07-29T20:16:08.215Z,40.18
2022-07-29T20:18:38.290Z,40.57
2022-07-29T20:21:05.866Z,40.49
2022-07-29T20:23:33.698Z,40.75
2022-07-29T20:26:01.405Z,40.66
2022-07-29T20:28:29.051Z,41.17
2022-07-29T20:30:56.950Z,41.15
2022-07-29T20:33:26.933Z,41.29
2022-07-29T20:35:54.673Z,41.67
2022-07-29T20:38:22.255Z,42.41
2022-07-29T20:40:53.974Z,42.46
2022-07-29T20:43:23.879Z,42.78
2022-07-29T20:45:51.507Z,43.41
2022-07-29T20:48:21.741Z,42.88
2022-07-29T20:50:52.918Z,43.38
2022-07-29T20:53:20.602Z,44.17
2022-07-29T20:55:48.134Z,44.46
2022-07-29T20:58:15.682Z,44.55
2022-07-29T21:00:43.435Z,44.97
2022-07-29T21:03:11.117Z,44.77
2022-07-29T21:05:41.582Z,45.38
2022-07-29T21:08:11.461Z,45.07
2022-07-29T21:10:39.023Z,45.46
2022-07-29T21:13:08.798Z,45.98
2022-07-29T21:15:36.679Z,46.37
2022-07-29T21:18:06.268Z,46.42
2022-07-29T21:20:33.838Z,47.04
2022-07-29T21:23:01.436Z,47.68
2022-07-29T21:25:29.344Z,47.59
2022-07-29T21:28:14.463Z,47.78
2022-07-29T21:30:42.054Z,48.11
2022-07-29T21:33:12.344Z,48.64
2022-07-29T21:36:10.545Z,48.95
2022-07-29T21:38:27.733Z,49.38
2022-07-29T21:40:55.712Z,49.42
2022-07-29T21:43:26.580Z,49.95
2022-07-29T21:45:54.450Z,50.48
2022-07-29T21:48:23.061Z,50.60
2022-07-29T21:50:55.091Z,51.15
2022-07-29T21:53:23.246Z,50.86
2022-07-29T21:55:55.314Z,52.01
2022-07-29T21:58:24.567Z,51.78
2022-07-29T22:00:54.564Z,52.21
2022-07-29T22:03:22.242Z,52.37
2022-07-29T22:05:49.790Z,52.39
2022-07-29T22:08:19.699Z,52.58
2022-07-29T22:10:49.773Z,52.69
2022-07-29T22:13:32.902Z,52.96
2022-07-29T22:16:04.584Z,53.53
2022-07-29T22:18:32.165Z,53.63
2022-07-29T22:21:02.260Z,54.11
2022-07-29T22:23:29.940Z,53.82
2022-07-29T22:25:59.990Z,53.98
2022-07-29T22:28:27.651Z,54.17
2022-07-29T22:30:57.681Z,54.12
2022-07-29T22:33:25.320Z,54.44
2022-07-29T22:35:52.918Z,54.59
2022-07-29T22:38:20.917Z,55.36
2022-07-29T22:40:51.278Z,55.05
2022-07-29T22:43:19.015Z,55.93
2022-07-29T22:45:46.679Z,55.47
2022-07-29T22:48:14.262Z,55.68
2022-07-29T22:50:41.950Z,56.22
2022-07-29T22:53:11.897Z,56.28
2022-07-29T22:55:39.483Z,56.98
2022-07-29T22:58:07.234Z,56.94
2022-07-29T23:00:37.280Z,56.92
2022-07-29T23:03:05.017Z,57.18
2022-07-29T23:05:32.600Z,57.19
2022-07-29T23:08:00.223Z,58.03
2022-07-29T23:10:28.281Z,57.79
2022-07-29T23:12:55.889Z,57.59
2022-07-29T23:15:23.711Z,57.93
2022-07-29T23:17:51.318Z,58.28
2022-07-29T23:20:19.167Z,58.40
2022-07-29T23:22:46.741Z,58.44
2022-07-29T23:25:14.398Z,58.54
2022-07-29T23:27:42.247Z,58.56
2022-07-29T23:30:12.720Z,59.17
2022-07-29T23:32:40.335Z,59.14
2022-07-29T23:35:11.804Z,59.69
2022-07-29T23:37:39.451Z,59.90
2022-07-29T23:40:13.680Z,59.94
2022-07-29T23:42:46.980Z,60.11
2022-07-29T23:45:15.152Z,60.04
2022-07-29T23:47:45.168Z,60.54
2022-07-29T23:50:16.903Z,60.50
2022-07-29T23:52:45.545Z,60.78
2022-07-29T23:55:36.331Z,61.24
2022-07-29T23:58:04.908Z,61.36
